createdAt,value
2022-10-05T00:00:00.051Z,8.13
2022-10-05T00:02:27.033Z,8.27
2022-10-05T00:04:56.623Z,10.30
2022-10-05T00:07:25.242Z,8.90
2022-10-05T00:09:59.672Z,11.07
2022-10-05T00:12:28.360Z,11.03
2022-10-05T00:15:01.260Z,12.70
2022-10-05T00:17:30.663Z,11.83
2022-10-05T00:19:57.275Z,9.03
2022-10-05T00:22:31.794Z,10.47
2022-10-05T00:25:00.513Z,11.10
2022-10-05T00:27:37.417Z,10.20
2022-10-05T00:30:18.863Z,10.40
2022-10-05T00:32:45.961Z,9.70
2022-10-05T00:35:13.988Z,10.87
2022-10-05T00:37:41.103Z,11.30
2022-10-05T00:40:36.679Z,11.10
2022-10-05T00:43:22.692Z,10.93
2022-10-05T00:45:56.066Z,7.07
2022-10-05T00:49:02.052Z,15.27
2022-10-05T00:51:31.429Z,8.93
2022-10-05T00:54:18.965Z,10.90
2022-10-05T00:57:03.733Z,9.60
2022-10-05T00:59:47.691Z,7.63
2022-10-05T01:02:35.807Z,12.17
2022-10-05T01:05:12.820Z,9.50
2022-10-05T01:08:00.206Z,8.60
2022-10-05T01:10:37.749Z,10.30
2022-10-05T01:13:11.942Z,9.43
2022-10-05T01:15:51.462Z,10.47
2022-10-05T01:18:24.477Z,11.33
2022-10-05T01:21:17.331Z,9.13
2022-10-05T01:24:02.030Z,8.57
2022-10-05T01:26:59.248Z,12.00
2022-10-05T01:29:49.464Z,9.27
2022-10-05T01:32:38.097Z,9.27
2022-10-05T01:35:28.891Z,8.93
2022-10-05T01:38:15.786Z,15.37
2022-10-05T01:40:55.673Z,11.83
2022-10-05T01:43:38.797Z,10.73
2022-10-05T01:46:11.219Z,6.77
2022-10-05T01:48:37.621Z,8.87
2022-10-05T01:51:28.365Z,12.50
2022-10-05T01:54:13.145Z,15.03
2022-10-05T01:56:43.131Z,8.33
2022-10-05T01:59:53.477Z,9.47
2022-10-05T02:02:23.664Z,9.97
2022-10-05T02:05:08.791Z,10.90
2022-10-05T02:08:00.282Z,8.67
2022-10-05T02:10:41.119Z,7.90
2022-10-05T02:13:20.714Z,9.07
2022-10-05T02:15:58.340Z,10.53
2022-10-05T02:18:37.879Z,7.63
2022-10-05T02:21:05.460Z,9.00
2022-10-05T02:23:36.221Z,9.47
2022-10-05T02:26:04.710Z,9.37
2022-10-05T02:28:53.383Z,7.80
2022-10-05T02:31:24.152Z,13.10
2022-10-05T02:33:50.632Z,7.63
2022-10-05T02:36:23.711Z,9.57
2022-10-05T02:39:16.299Z,12.80
2022-10-05T02:42:13.223Z,8.53
2022-10-05T02:45:13.424Z,9.87
2022-10-05T02:48:06.113Z,10.57
2022-10-05T02:50:52.608Z,9.20
2022-10-05T02:53:48.496Z,9.63
2022-10-05T02:56:40.145Z,8.57
2022-10-05T02:59:31.209Z,15.63
2022-10-05T03:02:22.480Z,9.87
2022-10-05T03:05:15.303Z,11.87
2022-10-05T03:07:50.604Z,8.90
2022-10-05T03:10:26.993Z,10.40
2022-10-05T03:13:22.223Z,9.33
2022-10-05T03:16:24.015Z,11.43
2022-10-05T03:19:16.186Z,12.87
2022-10-05T03:22:00.860Z,6.90
2022-10-05T03:24:52.550Z,13.40
2022-10-05T03:27:33.469Z,9.33
2022-10-05T03:30:10.335Z,15.20
2022-10-05T03:32:55.834Z,11.43
2022-10-05T03:35:34.374Z,7.40
2022-10-05T03:38:13.970Z,14.83
2022-10-05T03:40:46.725Z,11.77
2022-10-05T03:43:21.569Z,11.47
2022-10-05T03:46:04.335Z,8.87
2022-10-05T03:48:38.567Z,10.10
2022-10-05T03:51:32.472Z,9.33
2022-10-05T03:54:37.934Z,11.37
2022-10-05T03:57:13.541Z,9.87
2022-10-05T03:59:52.075Z,10.43
2022-10-05T04:02:24.823Z,13.73
2022-10-05T04:04:59.241Z,10.27
2022-10-05T04:07:52.054Z,8.10
2022-10-05T04:10:33.896Z,9.40
2022-10-05T04:13:11.205Z,13.00
2022-10-05T04:15:50.496Z,7.10
2022-10-05T04:18:32.200Z,8.30
2022-10-05T04:21:05.379Z,9.23
2022-10-05T04:23:58.376Z,8.50
2022-10-05T04:26:54.512Z,10.27
2022-10-05T04:29:29.812Z,10.57
2022-10-05T04:32:05.159Z,8.77
2022-10-05T04:35:02.540Z,12.07
2022-10-05T04:37:47.187Z,10.00
2022-10-05T04:40:51.379Z,11.00
2022-10-05T04:43:23.797Z,12.80
2022-10-05T04:46:18.951Z,12.23
2022-10-05T04:49:10.227Z,12.10
2022-10-05T04:51:51.179Z,12.23
2022-10-05T04:54:42.286Z,13.50
2022-10-05T04:57:20.870Z,11.30
2022-10-05T05:00:25.149Z,13.37
2022-10-05T05:03:19.565Z,17.10
2022-10-05T05:06:18.515Z,15.90
2022-10-05T05:09:14.722Z,8.70
2022-10-05T05:11:52.574Z,10.37
2022-10-05T05:14:28.030Z,19.43
2022-10-05T05:17:13.120Z,9.50
2022-10-05T05:20:07.802Z,11.90
2022-10-05T05:23:18.589Z,16.83
2022-10-05T05:26:27.523Z,10.37
2022-10-05T05:29:30.652Z,12.80
2022-10-05T05:32:06.414Z,16.47
2022-10-05T05:34:37.569Z,13.23
2022-10-05T05:37:19.330Z,14.77
2022-10-05T05:40:10.034Z,10.10
2022-10-05T05:43:04.800Z,11.37
2022-10-05T05:45:57.551Z,11.00
2022-10-05T05:48:43.805Z,12.00
2022-10-05T05:51:26.151Z,13.17
2022-10-05T05:54:22.340Z,10.80
2022-10-05T05:57:00.053Z,12.50
2022-10-05T05:59:37.768Z,15.90
2022-10-05T06:02:13.216Z,14.50
2022-10-05T06:04:45.867Z,10.70
2022-10-05T06:07:30.615Z,16.50
2022-10-05T06:10:29.238Z,16.70
2022-10-05T06:13:01.567Z,12.67
2022-10-05T06:15:38.452Z,11.80
2022-10-05T06:18:11.251Z,16.30
2022-10-05T06:20:49.287Z,13.00
2022-10-05T06:23:42.140Z,13.90
2022-10-05T06:26:10.903Z,21.03
2022-10-05T06:28:38.462Z,15.97
2022-10-05T06:31:20.695Z,17.00
2022-10-05T06:33:54.361Z,13.40
2022-10-05T06:36:48.631Z,12.93
2022-10-05T06:39:23.732Z,11.07
2022-10-05T06:42:08.449Z,13.73
2022-10-05T06:44:39.554Z,14.30
2022-10-05T06:47:38.026Z,12.57
2022-10-05T06:50:13.741Z,12.27
2022-10-05T06:53:17.748Z,16.97
2022-10-05T06:56:08.770Z,11.70
2022-10-05T06:59:00.620Z,15.37
2022-10-05T07:01:30.187Z,14.07
2022-10-05T07:04:36.970Z,12.77
2022-10-05T07:07:42.509Z,11.00
2022-10-05T07:10:21.048Z,15.00
2022-10-05T07:12:56.547Z,11.60
2022-10-05T07:15:42.527Z,12.93
2022-10-05T07:19:06.454Z,13.93
2022-10-05T07:22:03.365Z,13.33
2022-10-05T07:24:42.397Z,11.70
2022-10-05T07:27:22.652Z,14.40
2022-10-05T07:30:03.530Z,12.87
2022-10-05T07:32:50.371Z,13.53
2022-10-05T07:36:04.470Z,10.53
2022-10-05T07:38:33.501Z,13.07
2022-10-05T07:41:08.097Z,15.10
2022-10-05T07:44:02.073Z,14.10
2022-10-05T07:46:45.601Z,15.10
2022-10-05T07:49:22.642Z,14.90
2022-10-05T07:51:55.716Z,11.23
2022-10-05T07:54:28.523Z,14.30
2022-10-05T07:57:09.675Z,13.63
2022-10-05T07:59:58.200Z,12.77
2022-10-05T08:02:32.732Z,10.60
2022-10-05T08:05:05.213Z,11.50
2022-10-05T08:07:34.434Z,11.87
2022-10-05T08:10:18.672Z,10.33
2022-10-05T08:13:03.401Z,13.07
2022-10-05T08:15:47.459Z,11.97
2022-10-05T08:18:41.340Z,14.97
2022-10-05T08:21:12.023Z,14.97
2022-10-05T08:24:04.015Z,10.83
2022-10-05T08:26:50.186Z,15.47
2022-10-05T08:29:25.846Z,13.97
2022-10-05T08:31:57.700Z,14.03
2022-10-05T08:34:48.781Z,10.33
2022-10-05T08:37:18.140Z,13.87
2022-10-05T08:40:00.483Z,15.40
2022-10-05T08:43:09.241Z,14.53
2022-10-05T08:46:12.463Z,12.60
2022-10-05T08:48:48.494Z,11.10
2022-10-05T08:51:38.285Z,11.43
2022-10-05T08:54:42.505Z,14.47
2022-10-05T08:57:46.811Z,11.80
2022-10-05T09:00:19.156Z,9.53
2022-10-05T09:03:06.856Z,12.00
2022-10-05T09:05:57.946Z,8.60
2022-10-05T09:09:06.316Z,9.50
2022-10-05T09:11:41.665Z,9.70
2022-10-05T09:14:33.485Z,8.80
2022-10-05T09:17:22.537Z,10.43
2022-10-05T09:20:17.880Z,12.83
2022-10-05T09:23:05.606Z,10.10
2022-10-05T09:25:50.984Z,10.30
2022-10-05T09:28:25.420Z,9.30
2022-10-05T09:30:58.407Z,11.73
2022-10-05T09:33:57.141Z,9.83
2022-10-05T09:36:32.702Z,11.83
2022-10-05T09:39:27.625Z,13.20
2022-10-05T09:42:19.988Z,10.13
2022-10-05T09:45:05.496Z,10.37
2022-10-05T09:47:50.540Z,11.63
2022-10-05T09:50:53.656Z,13.70
2022-10-05T09:53:40.885Z,11.80
2022-10-05T09:56:29.983Z,10.13
2022-10-05T09:59:32.101Z,9.40
2022-10-05T10:02:16.653Z,9.63
2022-10-05T10:05:01.612Z,11.17
2022-10-05T10:07:31.479Z,9.77
2022-10-05T10:10:32.116Z,10.50
2022-10-05T10:13:10.906Z,11.00
2022-10-05T10:16:04.531Z,10.70
2022-10-05T10:18:48.587Z,11.70
2022-10-05T10:21:30.753Z,8.57
2022-10-05T10:24:21.191Z,9.07
2022-10-05T10:27:11.911Z,11.23
2022-10-05T10:29:59.127Z,10.63
2022-10-05T10:33:11.927Z,11.57
2022-10-05T10:35:47.075Z,8.47
2022-10-05T10:38:28.530Z,11.70
2022-10-05T10:41:06.623Z,10.33
2022-10-05T10:43:57.927Z,9.60
2022-10-05T10:46:39.239Z,8.60
2022-10-05T10:49:36.660Z,8.87
2022-10-05T10:52:34.926Z,8.80
2022-10-05T10:55:33.785Z,9.47
2022-10-05T10:58:42.473Z,10.10
2022-10-05T11:01:34.545Z,8.43
2022-10-05T11:04:38.917Z,8.30
2022-10-05T11:07:40.190Z,11.80
2022-10-05T11:10:25.962Z,8.40
2022-10-05T11:12:58.539Z,9.33
2022-10-05T11:16:00.588Z,8.07
2022-10-05T11:18:56.651Z,7.73
2022-10-05T11:21:36.727Z,16.87
2022-10-05T11:24:34.696Z,6.90
2022-10-05T11:30:19.604Z,6.40
2022-10-05T11:32:45.998Z,7.77
2022-10-05T11:35:34.438Z,6.70
2022-10-05T11:38:16.742Z,6.37
2022-10-05T11:41:08.750Z,12.13
2022-10-05T11:44:07.970Z,6.10
2022-10-05T11:46:53.867Z,9.07
2022-10-05T11:49:33.689Z,5.90
2022-10-05T11:52:21.260Z,7.93
2022-10-05T11:55:11.987Z,7.83
2022-10-05T11:57:58.310Z,6.87
2022-10-05T12:00:40.456Z,8.13
2022-10-05T12:03:27.555Z,7.07
2022-10-05T12:06:06.865Z,6.30
2022-10-05T12:09:11.270Z,5.77
2022-10-05T12:12:03.576Z,5.40
2022-10-05T12:14:54.889Z,6.73
2022-10-05T12:17:26.517Z,5.40
2022-10-05T12:20:16.810Z,4.53
2022-10-05T12:22:52.446Z,5.47
2022-10-05T12:25:22.190Z,5.50
2022-10-05T12:27:56.918Z,5.50
2022-10-05T12:30:48.818Z,5.20
2022-10-05T12:33:33.717Z,5.50
2022-10-05T12:36:07.911Z,5.70
2022-10-05T12:38:46.813Z,5.77
2022-10-05T12:41:33.737Z,4.73
2022-10-05T12:44:18.963Z,5.07
2022-10-05T12:47:23.912Z,9.80
2022-10-05T12:49:57.747Z,5.10
2022-10-05T12:53:01.835Z,4.30
2022-10-05T12:55:40.165Z,5.80
2022-10-05T12:58:18.039Z,5.03
2022-10-05T13:01:01.741Z,5.53
2022-10-05T13:03:36.830Z,9.87
2022-10-05T13:06:29.343Z,4.60
2022-10-05T13:09:30.979Z,6.60
2022-10-05T13:12:03.790Z,4.30
2022-10-05T13:14:56.209Z,5.53
2022-10-05T13:17:37.833Z,4.70
2022-10-05T13:20:22.887Z,4.60
2022-10-05T13:22:59.824Z,5.40
2022-10-05T13:25:32.960Z,4.67
2022-10-05T13:28:02.404Z,7.60
2022-10-05T13:30:29.620Z,4.70
2022-10-05T13:33:04.772Z,6.40
2022-10-05T13:35:48.536Z,4.47
2022-10-05T13:38:34.377Z,17.00
2022-10-05T13:41:28.167Z,4.63
2022-10-05T13:44:13.578Z,6.07
2022-10-05T13:46:49.612Z,4.60
2022-10-05T13:49:38.772Z,4.47
2022-10-05T13:52:24.849Z,4.40
2022-10-05T13:55:00.599Z,6.83
2022-10-05T13:58:02.433Z,6.27
2022-10-05T14:00:30.432Z,5.07
2022-10-05T14:02:59.604Z,4.07
2022-10-05T14:05:32.385Z,4.33
2022-10-05T14:08:18.967Z,5.50
2022-10-05T14:10:47.461Z,6.43
2022-10-05T14:13:29.186Z,5.93
2022-10-05T14:16:04.355Z,5.60
2022-10-05T14:18:33.623Z,5.37
2022-10-05T14:21:16.750Z,4.77
2022-10-05T14:23:43.495Z,5.50
2022-10-05T14:26:40.817Z,4.30
2022-10-05T14:29:17.631Z,6.40
2022-10-05T14:31:57.826Z,5.23
2022-10-05T14:34:32.019Z,4.30
2022-10-05T14:37:01.581Z,4.73
2022-10-05T14:39:32.731Z,4.67
2022-10-05T14:42:13.043Z,6.33
2022-10-05T14:44:39.703Z,4.57
2022-10-05T14:47:17.757Z,5.50
2022-10-05T14:50:10.804Z,4.30
2022-10-05T14:52:38.918Z,4.53
2022-10-05T14:55:18.245Z,4.50
2022-10-05T14:57:58.374Z,5.20
2022-10-05T15:00:26.010Z,3.80
2022-10-05T15:03:17.956Z,4.03
2022-10-05T15:06:02.138Z,4.23
2022-10-05T15:09:09.141Z,3.77
2022-10-05T15:11:50.751Z,3.53
2022-10-05T15:14:25.901Z,4.20
2022-10-05T15:17:02.478Z,4.20
2022-10-05T15:19:40.995Z,3.90
2022-10-05T15:22:23.821Z,7.57
2022-10-05T15:24:50.087Z,3.70
2022-10-05T15:27:34.993Z,6.07
2022-10-05T15:30:11.977Z,3.80
2022-10-05T15:32:49.718Z,3.67
2022-10-05T15:35:54.191Z,4.43
2022-10-05T15:38:26.919Z,4.20
2022-10-05T15:41:15.928Z,8.10
2022-10-05T15:44:30.223Z,4.00
2022-10-05T15:47:05.309Z,7.60
2022-10-05T15:49:59.476Z,3.90
2022-10-05T15:52:36.532Z,4.10
2022-10-05T15:55:20.886Z,4.20
2022-10-05T15:57:59.965Z,4.30
2022-10-05T16:00:27.337Z,4.03
2022-10-05T16:03:09.571Z,7.27
2022-10-05T16:06:12.223Z,3.87
2022-10-05T16:09:13.504Z,7.10
2022-10-05T16:12:08.636Z,3.60
2022-10-05T16:15:03.549Z,3.97
2022-10-05T16:18:07.759Z,5.30
2022-10-05T16:20:37.262Z,3.70
2022-10-05T16:23:26.701Z,4.47
2022-10-05T16:26:04.524Z,3.63
2022-10-05T16:28:39.442Z,4.23
2022-10-05T16:31:11.634Z,3.70
2022-10-05T16:33:59.053Z,13.23
2022-10-05T16:37:00.053Z,3.50
2022-10-05T16:39:44.966Z,3.10
2022-10-05T16:42:21.174Z,6.27
2022-10-05T16:45:13.932Z,4.00
2022-10-05T16:48:06.368Z,3.50
2022-10-05T16:50:55.062Z,4.13
2022-10-05T16:53:29.387Z,4.17
2022-10-05T16:56:03.688Z,3.87
2022-10-05T16:59:00.917Z,6.03
2022-10-05T17:01:42.192Z,3.80
2022-10-05T17:04:27.561Z,4.40
2022-10-05T17:07:19.306Z,4.27
2022-10-05T17:10:05.974Z,5.57
2022-10-05T17:12:51.359Z,3.57
2022-10-05T17:15:43.330Z,4.33
2022-10-05T17:18:48.890Z,4.10
2022-10-05T17:21:32.181Z,3.77
2022-10-05T17:24:25.116Z,5.83
2022-10-05T17:27:20.431Z,4.10
2022-10-05T17:29:55.428Z,12.23
2022-10-05T17:32:21.735Z,4.77
2022-10-05T17:35:00.520Z,4.53
2022-10-05T17:37:26.850Z,7.23
2022-10-05T17:39:55.499Z,4.40
2022-10-05T17:42:46.483Z,3.90
2022-10-05T17:45:13.127Z,4.50
2022-10-05T17:47:55.927Z,4.30
2022-10-05T17:51:02.119Z,7.20
2022-10-05T17:54:04.396Z,4.43
2022-10-05T17:56:53.352Z,6.03
2022-10-05T17:59:57.247Z,3.97
2022-10-05T18:02:39.376Z,4.53
2022-10-05T18:05:17.689Z,3.67
2022-10-05T18:07:48.635Z,4.60
2022-10-05T18:10:28.853Z,7.90
2022-10-05T18:13:01.307Z,5.00
2022-10-05T18:15:27.582Z,3.87
2022-10-05T18:18:00.860Z,4.20
2022-10-05T18:20:34.641Z,3.53
2022-10-05T18:23:00.948Z,3.40
2022-10-05T18:25:45.648Z,3.77
2022-10-05T18:28:51.015Z,3.27
2022-10-05T18:31:30.158Z,5.33
2022-10-05T18:34:15.369Z,3.90
2022-10-05T18:37:07.300Z,3.83
2022-10-05T18:40:05.427Z,3.30
2022-10-05T18:43:03.051Z,5.30
2022-10-05T18:45:46.159Z,9.63
2022-10-05T18:48:30.660Z,3.10
2022-10-05T18:51:03.117Z,3.77
2022-10-05T18:53:42.773Z,8.83
2022-10-05T18:56:38.443Z,3.93
2022-10-05T18:59:25.626Z,4.53
2022-10-05T19:02:16.650Z,3.93
2022-10-05T19:05:23.798Z,4.30
2022-10-05T19:08:10.787Z,4.33
2022-10-05T19:10:55.387Z,3.40
2022-10-05T19:13:52.416Z,3.00
2022-10-05T19:16:46.115Z,4.63
2022-10-05T19:19:50.145Z,4.63
2022-10-05T19:22:44.371Z,4.40
2022-10-05T19:25:20.858Z,3.57
2022-10-05T19:27:55.597Z,5.97
2022-10-05T19:30:29.996Z,4.27
2022-10-05T19:33:30.325Z,3.80
2022-10-05T19:36:10.216Z,3.10
2022-10-05T19:38:44.529Z,3.43
2022-10-05T19:41:29.798Z,3.57
2022-10-05T19:44:15.366Z,3.90
2022-10-05T19:46:50.438Z,5.37
2022-10-05T19:49:43.940Z,3.03
2022-10-05T19:52:40.721Z,3.40
2022-10-05T19:55:12.856Z,4.00
2022-10-05T19:58:22.217Z,4.10
2022-10-05T20:01:00.142Z,4.23
2022-10-05T20:03:31.672Z,5.33
2022-10-05T20:06:04.052Z,7.77
2022-10-05T20:08:39.516Z,8.17
2022-10-05T20:11:18.420Z,3.57
2022-10-05T20:13:52.030Z,3.23
2022-10-05T20:17:05.525Z,7.40
2022-10-05T20:19:50.379Z,5.23
2022-10-05T20:22:39.496Z,5.73
2022-10-05T20:25:28.751Z,3.47
2022-10-05T20:27:56.600Z,4.70
2022-10-05T20:30:28.803Z,3.97
2022-10-05T20:33:01.450Z,6.37
2022-10-05T20:35:30.798Z,3.63
2022-10-05T20:37:59.348Z,4.20
2022-10-05T20:40:29.045Z,3.70
2022-10-05T20:42:56.801Z,4.40
2022-10-05T20:45:23.680Z,4.03
2022-10-05T20:47:50.655Z,4.83
2022-10-05T20:50:17.481Z,4.40
2022-10-05T20:52:43.860Z,3.60
2022-10-05T20:55:12.595Z,5.90
2022-10-05T20:57:42.046Z,4.03
2022-10-05T21:00:13.319Z,5.90
2022-10-05T21:02:39.898Z,5.63
2022-10-05T21:05:07.577Z,3.50
2022-10-05T21:07:34.267Z,3.20
2022-10-05T21:10:01.407Z,3.30
2022-10-05T21:12:27.822Z,4.27
2022-10-05T21:14:54.204Z,4.53
2022-10-05T21:17:20.543Z,4.40
2022-10-05T21:19:47.078Z,3.40
2022-10-05T21:22:13.476Z,4.80
2022-10-05T21:24:40.936Z,5.90
2022-10-05T21:27:08.104Z,3.40
2022-10-05T21:29:35.861Z,6.23
2022-10-05T21:32:02.694Z,6.47
2022-10-05T21:34:29.263Z,3.33
2022-10-05T21:36:55.661Z,4.53
2022-10-05T21:39:22.041Z,3.17
2022-10-05T21:41:49.844Z,5.97
2022-10-05T21:44:16.686Z,5.07
2022-10-05T21:46:43.104Z,5.90
2022-10-05T21:49:09.830Z,3.53
2022-10-05T21:51:37.008Z,5.13
2022-10-05T21:54:12.165Z,3.73
2022-10-05T21:56:43.209Z,3.83
2022-10-05T21:59:13.391Z,2.60
2022-10-05T22:01:39.772Z,6.37
2022-10-05T22:04:07.573Z,3.30
2022-10-05T22:06:35.879Z,4.57
2022-10-05T22:09:03.371Z,6.23
2022-10-05T22:11:31.568Z,4.10
2022-10-05T22:14:04.080Z,4.37
2022-10-05T22:16:34.254Z,7.70
2022-10-05T22:19:05.431Z,4.20
2022-10-05T22:21:34.431Z,8.03
2022-10-05T22:24:02.313Z,2.63
2022-10-05T22:26:28.944Z,3.90
2022-10-05T22:28:56.705Z,3.37
2022-10-05T22:31:23.750Z,4.63
2022-10-05T22:33:50.432Z,3.53
2022-10-05T22:36:16.854Z,6.83
2022-10-05T22:38:44.709Z,6.07
2022-10-05T22:41:12.108Z,3.27
2022-10-05T22:43:39.077Z,5.20
2022-10-05T22:46:13.315Z,2.93
2022-10-05T22:48:40.189Z,3.23
2022-10-05T22:51:07.669Z,2.43
2022-10-05T22:53:34.990Z,3.03
2022-10-05T22:56:12.574Z,4.07
2022-10-05T22:58:40.205Z,2.00
2022-10-05T23:01:09.008Z,1.67
2022-10-05T23:03:35.677Z,3.47
2022-10-05T23:06:06.010Z,2.60
2022-10-05T23:08:33.895Z,3.80
2022-10-05T23:11:02.296Z,2.00
2022-10-05T23:13:28.829Z,2.40
2022-10-05T23:15:55.319Z,2.97
2022-10-05T23:18:21.688Z,2.23
2022-10-05T23:20:55.459Z,1.50
2022-10-05T23:23:22.988Z,1.40
2022-10-05T23:25:50.547Z,2.13
2022-10-05T23:28:17.116Z,3.10
2022-10-05T23:30:44.348Z,1.30
2022-10-05T23:33:10.767Z,1.43
2022-10-05T23:35:37.100Z,2.40
2022-10-05T23:38:03.719Z,1.77
2022-10-05T23:40:30.198Z,1.30
2022-10-05T23:42:56.581Z,1.50
2022-10-05T23:45:22.916Z,1.80
2022-10-05T23:47:49.294Z,1.20
2022-10-05T23:50:16.555Z,1.40
2022-10-05T23:52:43.329Z,1.13
2022-10-05T23:55:09.987Z,2.17
2022-10-05T23:57:36.599Z,1.93
